createdAt,value
2023-06-24T00:02:08.811Z,19.37
2023-06-24T00:04:37.370Z,19.38
2023-06-24T00:07:05.940Z,19.37
2023-06-24T00:09:34.692Z,19.38
2023-06-24T00:12:06.106Z,19.38
2023-06-24T00:14:34.465Z,19.38
2023-06-24T00:17:03.069Z,19.38
2023-06-24T00:19:32.641Z,19.38
2023-06-24T00:22:04.628Z,19.38
2023-06-24T00:24:32.985Z,19.37
2023-06-24T00:27:01.306Z,19.37
2023-06-24T00:29:31.026Z,19.38
2023-06-24T00:31:59.406Z,19.38
2023-06-24T00:34:27.721Z,19.38
2023-06-24T00:36:56.459Z,19.38
2023-06-24T00:39:24.804Z,19.39
2023-06-24T00:41:53.201Z,19.40
2023-06-24T00:44:22.069Z,19.40
2023-06-24T00:46:51.780Z,19.41
2023-06-24T00:49:20.149Z,19.42
2023-06-24T00:51:51.469Z,19.41
2023-06-24T00:54:20.358Z,19.41
2023-06-24T00:56:49.113Z,19.41
2023-06-24T00:59:18.939Z,19.41
2023-06-24T01:01:54.102Z,19.39
2023-06-24T01:04:22.544Z,19.39
2023-06-24T01:06:51.726Z,19.40
2023-06-24T01:09:24.858Z,19.40
2023-06-24T01:11:53.227Z,19.41
2023-06-24T01:14:24.045Z,19.41
2023-06-24T01:17:01.640Z,19.41
2023-06-24T01:19:58.526Z,19.40
2023-06-24T01:23:28.839Z,19.39
2023-06-24T01:26:35.707Z,19.37
2023-06-24T01:29:51.658Z,19.37
2023-06-24T01:32:30.344Z,19.37
2023-06-24T01:35:03.111Z,19.37
2023-06-24T01:37:38.941Z,19.38
2023-06-24T01:40:14.809Z,19.38
2023-06-24T01:42:45.498Z,19.40
2023-06-24T01:45:18.896Z,19.38
2023-06-24T01:47:51.189Z,19.38
2023-06-24T01:50:24.394Z,19.41
2023-06-24T01:52:55.530Z,19.41
2023-06-24T01:55:25.907Z,19.39
2023-06-24T01:57:54.904Z,19.41
2023-06-24T02:00:28.113Z,19.41
2023-06-24T02:02:59.226Z,19.41
2023-06-24T02:05:28.721Z,19.40
2023-06-24T02:08:02.329Z,19.40
2023-06-24T02:10:32.899Z,19.41
2023-06-24T02:13:03.661Z,19.40
2023-06-24T02:15:35.847Z,19.41
2023-06-24T02:18:07.400Z,19.41
2023-06-24T02:20:36.494Z,19.41
2023-06-24T02:23:06.203Z,19.41
2023-06-24T02:25:35.470Z,19.41
2023-06-24T02:28:04.263Z,19.43
2023-06-24T02:30:33.080Z,19.43
2023-06-24T02:33:01.555Z,19.42
2023-06-24T02:35:31.541Z,19.43
2023-06-24T02:37:59.935Z,19.42
2023-06-24T02:40:29.258Z,19.43
2023-06-24T02:42:58.798Z,19.43
2023-06-24T02:45:27.786Z,19.43
2023-06-24T02:47:58.037Z,19.43
2023-06-24T02:50:27.862Z,19.43
2023-06-24T02:53:00.975Z,19.41
2023-06-24T02:55:30.100Z,19.40
2023-06-24T02:57:59.250Z,19.40
2023-06-24T03:00:32.302Z,19.39
2023-06-24T03:03:01.322Z,19.39
2023-06-24T03:05:34.082Z,19.40
2023-06-24T03:08:05.123Z,19.38
2023-06-24T03:10:38.408Z,19.38
2023-06-24T03:13:06.775Z,19.39
2023-06-24T03:15:35.363Z,19.38
2023-06-24T03:18:03.831Z,19.38
2023-06-24T03:20:41.677Z,19.38
2023-06-24T03:23:11.769Z,19.37
2023-06-24T03:25:40.157Z,19.37
2023-06-24T03:28:08.821Z,19.36
2023-06-24T03:30:37.338Z,19.35
2023-06-24T03:33:06.989Z,19.35
2023-06-24T03:35:35.570Z,19.34
2023-06-24T03:38:04.251Z,19.34
2023-06-24T03:40:39.498Z,19.33
2023-06-24T03:43:10.550Z,19.30
2023-06-24T03:45:39.009Z,19.29
2023-06-24T03:48:08.171Z,19.29
2023-06-24T03:50:39.384Z,19.29
2023-06-24T03:53:08.825Z,19.28
2023-06-24T03:55:38.545Z,19.29
2023-06-24T03:58:06.849Z,19.27
2023-06-24T04:00:35.195Z,19.26
2023-06-24T04:03:03.570Z,19.26
2023-06-24T04:05:35.048Z,19.26
2023-06-24T04:08:06.886Z,19.26
2023-06-24T04:10:35.162Z,19.25
2023-06-24T04:13:04.859Z,19.25
2023-06-24T04:15:33.335Z,19.24
2023-06-24T04:18:01.886Z,19.23
2023-06-24T04:20:33.037Z,19.22
2023-06-24T04:23:02.205Z,19.23
2023-06-24T04:25:30.479Z,19.21
2023-06-24T04:27:58.824Z,19.22
2023-06-24T04:30:28.492Z,19.24
2023-06-24T04:32:56.885Z,19.24
2023-06-24T04:35:26.174Z,19.25
2023-06-24T04:37:54.536Z,19.26
2023-06-24T04:40:22.833Z,19.27
2023-06-24T04:42:51.336Z,19.31
2023-06-24T04:45:19.667Z,19.33
2023-06-24T04:47:49.472Z,19.35
2023-06-24T04:50:17.873Z,19.36
2023-06-24T04:52:48.030Z,19.38
2023-06-24T04:55:19.164Z,19.39
2023-06-24T04:57:47.500Z,19.42
2023-06-24T05:00:16.853Z,19.44
2023-06-24T05:02:45.276Z,19.46
2023-06-24T05:05:15.042Z,19.49
2023-06-24T05:07:43.454Z,19.53
2023-06-24T05:10:11.851Z,19.55
2023-06-24T05:12:40.171Z,19.57
2023-06-24T05:15:10.541Z,19.58
2023-06-24T05:17:39.180Z,19.61
2023-06-24T05:20:09.226Z,19.64
2023-06-24T05:22:39.071Z,19.67
2023-06-24T05:25:08.640Z,19.71
2023-06-24T05:27:39.862Z,19.74
2023-06-24T05:30:10.109Z,19.78
2023-06-24T05:32:38.445Z,19.79
2023-06-24T05:35:08.201Z,19.83
2023-06-24T05:37:37.890Z,19.84
2023-06-24T05:40:08.690Z,19.88
2023-06-24T05:42:37.052Z,19.90
2023-06-24T05:45:07.258Z,19.93
2023-06-24T05:47:35.651Z,19.97
2023-06-24T05:50:04.088Z,20.00
2023-06-24T05:52:32.377Z,20.02
2023-06-24T05:55:02.065Z,20.04
2023-06-24T05:57:33.165Z,20.09
2023-06-24T06:00:01.607Z,20.13
2023-06-24T06:02:29.991Z,20.16
2023-06-24T06:05:03.975Z,20.18
2023-06-24T06:07:32.303Z,20.22
2023-06-24T06:10:02.029Z,20.26
2023-06-24T06:12:30.311Z,20.29
2023-06-24T06:14:58.627Z,20.33
2023-06-24T06:17:26.976Z,20.39
2023-06-24T06:19:55.384Z,20.42
2023-06-24T06:22:23.721Z,20.46
2023-06-24T06:24:52.091Z,20.51
2023-06-24T06:27:21.761Z,20.55
2023-06-24T06:29:50.065Z,20.60
2023-06-24T06:32:18.379Z,20.62
2023-06-24T06:34:52.942Z,20.67
2023-06-24T06:37:21.305Z,20.72
2023-06-24T06:39:49.626Z,20.75
2023-06-24T06:42:53.734Z,20.77
2023-06-24T06:45:24.699Z,20.82
2023-06-24T06:47:53.290Z,20.87
2023-06-24T06:50:21.827Z,20.94
2023-06-24T06:52:50.192Z,21.00
2023-06-24T06:55:21.195Z,21.05
2023-06-24T06:57:49.825Z,21.11
2023-06-24T07:00:22.648Z,21.17
2023-06-24T07:02:51.109Z,21.24
2023-06-24T07:05:25.076Z,21.30
2023-06-24T07:07:54.869Z,21.36
2023-06-24T07:10:23.434Z,21.39
2023-06-24T07:12:52.272Z,21.46
2023-06-24T07:15:22.054Z,21.51
2023-06-24T07:17:50.437Z,21.57
2023-06-24T07:20:18.804Z,21.61
2023-06-24T07:22:47.083Z,21.67
2023-06-24T07:25:15.631Z,21.75
2023-06-24T07:27:43.950Z,21.79
2023-06-24T07:30:12.929Z,21.87
2023-06-24T07:32:42.661Z,21.93
2023-06-24T07:35:11.558Z,22.01
2023-06-24T07:37:39.925Z,22.12
2023-06-24T07:40:10.375Z,22.21
2023-06-24T07:42:38.787Z,22.29
2023-06-24T07:45:08.589Z,22.36
2023-06-24T07:47:37.035Z,22.42
2023-06-24T07:50:12.008Z,22.45
2023-06-24T07:52:40.638Z,22.54
2023-06-24T07:55:09.997Z,22.60
2023-06-24T07:57:38.368Z,22.66
2023-06-24T08:00:11.144Z,22.68
2023-06-24T08:02:39.529Z,22.75
2023-06-24T08:05:11.079Z,22.78
2023-06-24T08:07:40.500Z,22.83
2023-06-24T08:10:12.545Z,22.86
2023-06-24T08:12:40.839Z,22.92
2023-06-24T08:15:10.406Z,22.98
2023-06-24T08:17:39.032Z,23.04
2023-06-24T08:20:13.639Z,23.12
2023-06-24T08:22:41.966Z,23.25
2023-06-24T08:25:10.845Z,23.38
2023-06-24T08:27:39.770Z,23.51
2023-06-24T08:30:15.253Z,23.66
2023-06-24T08:32:43.719Z,23.72
2023-06-24T08:35:13.775Z,23.81
2023-06-24T08:37:42.771Z,23.86
2023-06-24T08:40:12.164Z,23.91
2023-06-24T08:42:40.479Z,24.02
2023-06-24T08:45:12.722Z,24.12
2023-06-24T08:47:43.161Z,24.20
2023-06-24T08:50:15.015Z,24.30
2023-06-24T08:52:47.933Z,24.43
2023-06-24T08:55:28.232Z,24.54
2023-06-24T08:57:56.633Z,24.65
2023-06-24T09:00:25.557Z,24.75
2023-06-24T09:02:53.903Z,24.81
2023-06-24T09:05:23.677Z,24.93
2023-06-24T09:07:52.042Z,25.07
2023-06-24T09:10:37.010Z,25.22
2023-06-24T09:13:07.618Z,25.36
2023-06-24T09:15:37.179Z,25.53
2023-06-24T09:18:06.762Z,25.67
2023-06-24T09:20:45.784Z,25.82
2023-06-24T09:23:14.343Z,25.94
2023-06-24T09:25:45.051Z,26.09
2023-06-24T09:28:16.053Z,26.24
2023-06-24T09:30:53.763Z,26.36
2023-06-24T09:33:24.963Z,26.46
2023-06-24T09:35:55.143Z,26.64
2023-06-24T09:38:35.834Z,26.78
2023-06-24T09:41:16.268Z,26.89
2023-06-24T09:43:46.247Z,27.00
2023-06-24T09:46:15.100Z,27.02
2023-06-24T09:48:43.446Z,27.06
2023-06-24T09:51:15.680Z,27.06
2023-06-24T09:53:45.795Z,27.05
2023-06-24T09:56:16.500Z,27.05
2023-06-24T09:58:46.921Z,27.03
2023-06-24T10:01:17.637Z,27.07
2023-06-24T10:03:46.476Z,27.10
2023-06-24T10:06:16.518Z,27.16
2023-06-24T10:08:47.896Z,27.25
2023-06-24T10:11:16.270Z,27.38
2023-06-24T10:13:44.738Z,27.54
2023-06-24T10:16:13.314Z,27.66
2023-06-24T10:18:42.434Z,27.76
2023-06-24T10:21:11.736Z,27.82
2023-06-24T10:23:54.254Z,27.84
2023-06-24T10:26:29.487Z,27.88
2023-06-24T10:29:18.583Z,27.88
2023-06-24T10:31:56.972Z,27.90
2023-06-24T10:34:33.727Z,27.90
2023-06-24T10:37:04.324Z,27.93
2023-06-24T10:39:51.466Z,27.93
2023-06-24T10:42:44.910Z,27.95
2023-06-24T10:45:19.878Z,27.96
2023-06-24T10:47:50.529Z,28.01
2023-06-24T10:50:22.476Z,28.08
2023-06-24T10:52:56.218Z,28.15
2023-06-24T10:55:27.467Z,28.26
2023-06-24T10:57:56.244Z,28.39
2023-06-24T11:00:24.644Z,28.56
2023-06-24T11:02:53.064Z,28.70
2023-06-24T11:05:21.467Z,28.83
2023-06-24T11:07:49.812Z,28.92
2023-06-24T11:10:18.632Z,28.99
2023-06-24T11:12:48.836Z,29.02
2023-06-24T11:15:17.255Z,29.08
2023-06-24T11:17:45.761Z,29.14
2023-06-24T11:20:16.013Z,29.20
2023-06-24T11:22:45.864Z,29.31
2023-06-24T11:25:18.801Z,29.39
2023-06-24T11:27:48.866Z,29.50
2023-06-24T11:30:18.856Z,29.60
2023-06-24T11:32:49.029Z,29.71
2023-06-24T11:35:18.219Z,29.82
2023-06-24T11:37:49.183Z,29.88
2023-06-24T11:40:21.463Z,29.87
2023-06-24T11:42:52.177Z,29.87
2023-06-24T11:45:24.073Z,29.83
2023-06-24T11:47:53.453Z,29.78
2023-06-24T11:50:29.129Z,29.79
2023-06-24T11:52:57.598Z,29.82
2023-06-24T11:55:29.865Z,29.90
2023-06-24T11:58:02.646Z,29.96
2023-06-24T12:00:34.033Z,30.03
2023-06-24T12:03:05.864Z,30.07
2023-06-24T12:05:37.841Z,30.14
2023-06-24T12:08:10.134Z,30.26
2023-06-24T12:10:40.591Z,30.38
2023-06-24T12:13:10.657Z,30.46
2023-06-24T12:15:39.427Z,30.51
2023-06-24T12:18:07.885Z,30.53
2023-06-24T12:20:38.967Z,30.51
2023-06-24T12:23:08.255Z,30.45
2023-06-24T12:25:36.660Z,30.41
2023-06-24T12:28:05.182Z,30.37
2023-06-24T12:30:35.243Z,30.30
2023-06-24T12:33:04.242Z,30.26
2023-06-24T12:35:35.593Z,30.19
2023-06-24T12:38:03.990Z,30.13
2023-06-24T12:40:32.365Z,30.04
2023-06-24T12:43:01.051Z,29.93
2023-06-24T12:45:29.393Z,29.86
2023-06-24T12:48:00.417Z,29.84
2023-06-24T12:50:28.889Z,29.85
2023-06-24T12:52:57.315Z,29.90
2023-06-24T12:55:25.719Z,29.92
2023-06-24T12:57:54.109Z,29.98
2023-06-24T13:00:23.614Z,30.06
2023-06-24T13:02:52.779Z,30.13
2023-06-24T13:05:23.328Z,30.22
2023-06-24T13:07:51.868Z,30.32
2023-06-24T13:10:20.655Z,30.44
2023-06-24T13:12:51.362Z,30.50
2023-06-24T13:15:21.017Z,30.56
2023-06-24T13:17:49.430Z,30.52
2023-06-24T13:20:18.088Z,30.47
2023-06-24T13:22:47.882Z,30.38
2023-06-24T13:25:17.013Z,30.29
2023-06-24T13:27:46.295Z,30.22
2023-06-24T13:30:22.922Z,30.15
2023-06-24T13:32:51.421Z,30.12
2023-06-24T13:35:19.878Z,30.14
2023-06-24T13:37:49.735Z,30.15
2023-06-24T13:40:18.331Z,30.18
2023-06-24T13:42:46.702Z,30.15
2023-06-24T13:45:15.050Z,30.14
2023-06-24T13:47:54.432Z,30.12
2023-06-24T13:50:22.915Z,30.11
2023-06-24T13:52:52.702Z,30.12
2023-06-24T13:55:21.034Z,30.07
2023-06-24T13:57:49.478Z,30.03
2023-06-24T14:00:19.120Z,29.99
2023-06-24T14:02:47.604Z,29.92
2023-06-24T14:05:16.090Z,29.87
2023-06-24T14:07:44.608Z,29.86
2023-06-24T14:10:14.513Z,29.87
2023-06-24T14:12:43.756Z,29.87
2023-06-24T14:15:12.896Z,29.89
2023-06-24T14:17:41.176Z,29.95
2023-06-24T14:20:11.521Z,29.94
2023-06-24T14:22:39.912Z,30.01
2023-06-24T14:25:17.921Z,30.01
2023-06-24T14:27:46.913Z,30.03
2023-06-24T14:30:15.558Z,30.02
2023-06-24T14:32:43.941Z,30.03
2023-06-24T14:35:12.363Z,30.09
2023-06-24T14:37:40.688Z,30.14
2023-06-24T14:40:18.171Z,30.23
2023-06-24T14:42:46.460Z,30.28
2023-06-24T14:45:14.991Z,30.40
2023-06-24T14:47:43.417Z,30.41
2023-06-24T14:50:17.228Z,30.42
2023-06-24T14:52:45.721Z,30.44
2023-06-24T14:55:14.169Z,30.53
2023-06-24T14:57:43.892Z,30.58
2023-06-24T15:00:14.543Z,30.65
2023-06-24T15:02:43.044Z,30.73
2023-06-24T15:05:11.566Z,30.82
2023-06-24T15:07:39.966Z,30.93
2023-06-24T15:10:09.693Z,31.00
2023-06-24T15:12:38.780Z,31.01
2023-06-24T15:15:09.657Z,31.02
2023-06-24T15:17:41.269Z,31.05
2023-06-24T15:20:17.081Z,31.05
2023-06-24T15:22:45.445Z,31.04
2023-06-24T15:25:14.410Z,31.01
2023-06-24T15:27:42.818Z,30.98
2023-06-24T15:30:14.264Z,30.93
2023-06-24T15:32:43.780Z,30.89
2023-06-24T15:35:12.266Z,30.84
2023-06-24T15:37:40.643Z,30.78
2023-06-24T15:40:13.024Z,30.72
2023-06-24T15:42:41.484Z,30.68
2023-06-24T15:45:12.268Z,30.65
2023-06-24T15:47:40.636Z,30.67
2023-06-24T15:50:10.840Z,30.66
2023-06-24T15:52:39.879Z,30.60
2023-06-24T15:55:10.705Z,30.61
2023-06-24T15:57:39.142Z,30.63
2023-06-24T16:00:11.548Z,30.68
2023-06-24T16:02:41.446Z,30.74
2023-06-24T16:05:10.620Z,30.79
2023-06-24T16:07:39.040Z,30.85
2023-06-24T16:10:10.943Z,30.87
2023-06-24T16:12:39.355Z,30.92
2023-06-24T16:15:09.492Z,30.95
2023-06-24T16:17:41.814Z,31.01
2023-06-24T16:20:15.587Z,31.04
2023-06-24T16:22:44.108Z,31.08
2023-06-24T16:25:12.983Z,31.08
2023-06-24T16:27:41.698Z,31.10
2023-06-24T16:30:10.917Z,31.14
2023-06-24T16:32:39.313Z,31.15
2023-06-24T16:35:09.597Z,31.17
2023-06-24T16:37:42.425Z,31.16
2023-06-24T16:40:11.752Z,31.16
2023-06-24T16:42:40.087Z,31.14
2023-06-24T16:45:12.521Z,31.12
2023-06-24T16:47:41.019Z,31.11
2023-06-24T16:50:11.183Z,31.10
2023-06-24T16:52:41.000Z,31.12
2023-06-24T16:55:14.500Z,31.12
2023-06-24T16:57:43.451Z,31.13
2023-06-24T17:00:13.450Z,31.13
2023-06-24T17:02:42.608Z,31.15
2023-06-24T17:05:11.350Z,31.15
2023-06-24T17:07:41.086Z,31.14
2023-06-24T17:10:10.123Z,31.10
2023-06-24T17:12:39.780Z,31.06
2023-06-24T17:15:11.364Z,30.99
2023-06-24T17:17:39.826Z,30.92
2023-06-24T17:20:10.418Z,30.83
2023-06-24T17:22:40.168Z,30.73
2023-06-24T17:25:09.671Z,30.65
2023-06-24T17:27:38.041Z,30.56
2023-06-24T17:30:10.828Z,30.41
2023-06-24T17:32:39.271Z,30.31
2023-06-24T17:35:08.872Z,30.18
2023-06-24T17:37:37.252Z,30.12
2023-06-24T17:40:09.233Z,30.05
2023-06-24T17:42:37.760Z,29.98
2023-06-24T17:45:07.828Z,29.85
2023-06-24T17:47:36.331Z,29.76
2023-06-24T17:50:05.467Z,29.69
2023-06-24T17:52:33.874Z,29.59
2023-06-24T17:55:03.014Z,29.52
2023-06-24T17:57:32.901Z,29.45
2023-06-24T18:00:01.297Z,29.37
2023-06-24T18:02:32.174Z,29.31
2023-06-24T18:05:05.317Z,29.23
2023-06-24T18:07:33.966Z,29.15
2023-06-24T18:10:02.590Z,29.06
2023-06-24T18:12:32.446Z,28.99
2023-06-24T18:15:06.467Z,28.92
2023-06-24T18:17:34.907Z,28.85
2023-06-24T18:20:06.470Z,28.81
2023-06-24T18:22:34.808Z,28.74
2023-06-24T18:25:03.969Z,28.67
2023-06-24T18:27:33.824Z,28.60
2023-06-24T18:30:07.331Z,28.51
2023-06-24T18:32:35.722Z,28.43
2023-06-24T18:35:04.305Z,28.36
2023-06-24T18:37:32.948Z,28.29
2023-06-24T18:40:03.535Z,28.20
2023-06-24T18:42:33.344Z,28.13
2023-06-24T18:45:04.600Z,28.06
2023-06-24T18:47:33.052Z,27.97
2023-06-24T18:50:05.360Z,27.90
2023-06-24T18:52:33.720Z,27.81
2023-06-24T18:55:05.029Z,27.74
2023-06-24T18:57:34.817Z,27.65
2023-06-24T19:00:06.288Z,27.55
2023-06-24T19:02:34.848Z,27.46
2023-06-24T19:05:03.307Z,27.38
2023-06-24T19:07:31.933Z,27.29
2023-06-24T19:10:01.891Z,27.22
2023-06-24T19:12:34.031Z,27.13
2023-06-24T19:15:02.421Z,27.04
2023-06-24T19:17:31.039Z,26.96
2023-06-24T19:19:59.440Z,26.88
2023-06-24T19:22:27.777Z,26.78
2023-06-24T19:24:56.197Z,26.67
2023-06-24T19:27:25.061Z,26.58
2023-06-24T19:29:54.864Z,26.50
2023-06-24T19:32:23.395Z,26.40
2023-06-24T19:34:51.897Z,26.33
2023-06-24T19:37:20.313Z,26.26
2023-06-24T19:39:48.716Z,26.18
2023-06-24T19:42:17.064Z,26.11
2023-06-24T19:44:45.568Z,26.05
2023-06-24T19:47:17.884Z,25.95
2023-06-24T19:49:52.716Z,25.89
2023-06-24T19:52:21.498Z,25.82
2023-06-24T19:54:50.901Z,25.75
2023-06-24T19:57:21.064Z,25.65
2023-06-24T19:59:49.636Z,25.56
2023-06-24T20:02:19.484Z,25.47
2023-06-24T20:04:48.163Z,25.37
2023-06-24T20:07:17.400Z,25.30
2023-06-24T20:09:46.075Z,25.21
2023-06-24T20:12:14.553Z,25.13
2023-06-24T20:14:42.962Z,25.04
2023-06-24T20:17:11.354Z,24.96
2023-06-24T20:19:41.199Z,24.88
2023-06-24T20:22:09.966Z,24.79
2023-06-24T20:24:38.363Z,24.70
2023-06-24T20:27:07.322Z,24.64
2023-06-24T20:29:35.632Z,24.58
2023-06-24T20:32:03.991Z,24.51
2023-06-24T20:34:32.341Z,24.44
2023-06-24T20:37:02.118Z,24.37
2023-06-24T20:39:30.386Z,24.29
2023-06-24T20:41:59.261Z,24.22
2023-06-24T20:44:27.650Z,24.13
2023-06-24T20:46:56.101Z,24.05
2023-06-24T20:49:24.453Z,23.99
2023-06-24T20:51:52.744Z,23.93
2023-06-24T20:54:22.692Z,23.86
2023-06-24T20:56:51.861Z,23.79
2023-06-24T20:59:20.147Z,23.73
2023-06-24T21:01:48.528Z,23.63
2023-06-24T21:04:17.297Z,23.59
2023-06-24T21:06:45.808Z,23.55
2023-06-24T21:09:14.382Z,23.50
2023-06-24T21:11:44.117Z,23.45
2023-06-24T21:14:12.444Z,23.38
2023-06-24T21:16:40.852Z,23.33
2023-06-24T21:19:09.667Z,23.26
2023-06-24T21:21:38.051Z,23.21
2023-06-24T21:24:08.473Z,23.12
2023-06-24T21:26:36.817Z,23.07
2023-06-24T21:29:06.516Z,23.02
2023-06-24T21:31:34.901Z,22.96
2023-06-24T21:34:03.310Z,22.90
2023-06-24T21:36:31.648Z,22.85
2023-06-24T21:38:59.946Z,22.79
2023-06-24T21:41:28.441Z,22.75
2023-06-24T21:43:57.624Z,22.70
2023-06-24T21:46:27.454Z,22.64
2023-06-24T21:48:55.854Z,22.57
2023-06-24T21:51:24.195Z,22.51
2023-06-24T21:53:52.509Z,22.43
2023-06-24T21:56:20.876Z,22.40
2023-06-24T21:58:49.211Z,22.35
2023-06-24T22:01:18.070Z,22.29
2023-06-24T22:03:47.791Z,22.23
2023-06-24T22:06:16.210Z,22.17
2023-06-24T22:08:44.598Z,22.11
2023-06-24T22:11:12.982Z,22.05
2023-06-24T22:13:41.369Z,22.00
2023-06-24T22:16:11.762Z,21.94
2023-06-24T22:18:40.188Z,21.89
2023-06-24T22:21:09.919Z,21.82
2023-06-24T22:23:38.303Z,21.77
2023-06-24T22:26:06.730Z,21.72
2023-06-24T22:28:35.054Z,21.66
2023-06-24T22:31:03.596Z,21.61
2023-06-24T22:33:32.131Z,21.56
2023-06-24T22:36:00.551Z,21.54
2023-06-24T22:38:30.263Z,21.50
2023-06-24T22:40:58.681Z,21.47
2023-06-24T22:43:28.114Z,21.42
2023-06-24T22:45:56.566Z,21.38
2023-06-24T22:48:24.960Z,21.33
2023-06-24T22:50:53.392Z,21.29
2023-06-24T22:53:21.787Z,21.28
2023-06-24T22:55:51.533Z,21.22
2023-06-24T22:58:19.938Z,21.16
2023-06-24T23:00:48.261Z,21.12
2023-06-24T23:03:17.588Z,21.07
2023-06-24T23:05:46.724Z,21.04
2023-06-24T23:08:15.785Z,20.98
2023-06-24T23:10:44.935Z,20.94
2023-06-24T23:13:15.217Z,20.88
2023-06-24T23:15:44.885Z,20.84
2023-06-24T23:18:13.694Z,20.80
2023-06-24T23:20:43.665Z,20.77
2023-06-24T23:23:14.775Z,20.71
2023-06-24T23:25:43.770Z,20.67
2023-06-24T23:28:17.235Z,20.61
2023-06-24T23:30:47.513Z,20.59
2023-06-24T23:33:18.253Z,20.55
2023-06-24T23:35:49.911Z,20.49
2023-06-24T23:38:20.764Z,20.45
2023-06-24T23:40:50.143Z,20.42
2023-06-24T23:43:21.617Z,20.34
2023-06-24T23:45:52.454Z,20.33
2023-06-24T23:48:21.204Z,20.27
2023-06-24T23:50:49.546Z,20.23
2023-06-24T23:53:17.983Z,20.18
2023-06-24T23:55:46.344Z,20.14
2023-06-24T23:58:14.704Z,20.10
